sensor_id;sensor_type;location;lat;lon;timestamp;temperature;humidity
30206;DHT22;17010;51.306;3.150;2023-11-19T00:01:24;13.10;99.90
30206;DHT22;17010;51.306;3.150;2023-11-19T00:03:50;13.10;99.90
30206;DHT22;17010;51.306;3.150;2023-11-19T00:06:16;13.10;99.90
30206;DHT22;17010;51.306;3.150;2023-11-19T00:08:42;13.10;99.90
30206;DHT22;17010;51.306;3.150;2023-11-19T00:11:12;13.10;99.90
30206;DHT22;17010;51.306;3.150;2023-11-19T00:13:41;13.00;99.90
30206;DHT22;17010;51.306;3.150;2023-11-19T00:16:08;13.00;99.90
30206;DHT22;17010;51.306;3.150;2023-11-19T00:18:36;13.00;99.90
30206;DHT22;17010;51.306;3.150;2023-11-19T00:21:02;13.00;99.90
30206;DHT22;17010;51.306;3.150;2023-11-19T00:23:28;13.00;99.90
30206;DHT22;17010;51.306;3.150;2023-11-19T00:25:54;13.00;99.90
30206;DHT22;17010;51.306;3.150;2023-11-19T00:28:21;13.00;99.90
30206;DHT22;17010;51.306;3.150;2023-11-19T00:30:47;13.00;99.90
30206;DHT22;17010;51.306;3.150;2023-11-19T00:33:13;12.90;99.90
30206;DHT22;17010;51.306;3.150;2023-11-19T00:35:39;12.90;99.90
30206;DHT22;17010;51.306;3.150;2023-11-19T00:38:05;12.90;99.90
30206;DHT22;17010;51.306;3.150;2023-11-19T00:40:32;12.80;99.90
30206;DHT22;17010;51.306;3.150;2023-11-19T00:42:58;12.80;99.90
30206;DHT22;17010;51.306;3.150;2023-11-19T00:45:24;12.70;99.90
30206;DHT22;17010;51.306;3.150;2023-11-19T00:47:51;12.70;99.90
30206;DHT22;17010;51.306;3.150;2023-11-19T00:50:18;12.60;99.90
30206;DHT22;17010;51.306;3.150;2023-11-19T00:52:44;12.60;99.90
30206;DHT22;17010;51.306;3.150;2023-11-19T00:55:11;12.60;99.90
30206;DHT22;17010;51.306;3.150;2023-11-19T00:57:37;12.50;99.90
30206;DHT22;17010;51.306;3.150;2023-11-19T01:00:05;12.50;99.90
30206;DHT22;17010;51.306;3.150;2023-11-19T01:03:00;12.50;99.90
30206;DHT22;17010;51.306;3.150;2023-11-19T01:05:27;12.50;99.90
30206;DHT22;17010;51.306;3.150;2023-11-19T01:07:54;12.50;99.90
30206;DHT22;17010;51.306;3.150;2023-11-19T01:10:20;12.50;99.90
30206;DHT22;17010;51.306;3.150;2023-11-19T01:12:46;12.40;99.90
30206;DHT22;17010;51.306;3.150;2023-11-19T01:15:13;12.50;99.90
30206;DHT22;17010;51.306;3.150;2023-11-19T01:17:39;12.40;99.90
30206;DHT22;17010;51.306;3.150;2023-11-19T01:20:05;12.40;99.90
30206;DHT22;17010;51.306;3.150;2023-11-19T01:22:39;12.40;99.90
30206;DHT22;17010;51.306;3.150;2023-11-19T01:25:06;12.40;99.90
30206;DHT22;17010;51.306;3.150;2023-11-19T01:27:32;12.30;99.90
30206;DHT22;17010;51.306;3.150;2023-11-19T01:30:02;12.40;99.90
30206;DHT22;17010;51.306;3.150;2023-11-19T01:32:32;12.40;99.90
30206;DHT22;17010;51.306;3.150;2023-11-19T01:34:59;12.30;99.90
30206;DHT22;17010;51.306;3.150;2023-11-19T01:37:25;12.30;99.90
30206;DHT22;17010;51.306;3.150;2023-11-19T01:39:51;12.30;99.90
30206;DHT22;17010;51.306;3.150;2023-11-19T01:42:17;12.30;99.90
30206;DHT22;17010;51.306;3.150;2023-11-19T01:45:00;12.30;99.90
30206;DHT22;17010;51.306;3.150;2023-11-19T01:47:27;12.30;99.90
30206;DHT22;17010;51.306;3.150;2023-11-19T01:49:54;12.30;99.90
30206;DHT22;17010;51.306;3.150;2023-11-19T01:52:22;12.30;99.90
30206;DHT22;17010;51.306;3.150;2023-11-19T01:54:49;12.30;99.90
30206;DHT22;17010;51.306;3.150;2023-11-19T01:57:16;12.20;99.90
30206;DHT22;17010;51.306;3.150;2023-11-19T01:59:43;12.30;99.90
30206;DHT22;17010;51.306;3.150;2023-11-19T02:02:09;12.30;99.90
30206;DHT22;17010;51.306;3.150;2023-11-19T02:04:35;12.30;99.90
30206;DHT22;17010;51.306;3.150;2023-11-19T02:07:02;12.30;99.90
30206;DHT22;17010;51.306;3.150;2023-11-19T02:09:29;12.30;99.90
30206;DHT22;17010;51.306;3.150;2023-11-19T02:11:56;12.30;99.90
30206;DHT22;17010;51.306;3.150;2023-11-19T02:14:25;12.30;99.90
30206;DHT22;17010;51.306;3.150;2023-11-19T02:16:52;12.30;99.90
30206;DHT22;17010;51.306;3.150;2023-11-19T02:19:21;12.30;99.90
30206;DHT22;17010;51.306;3.150;2023-11-19T02:21:48;12.20;99.90
30206;DHT22;17010;51.306;3.150;2023-11-19T02:24:15;12.20;99.90
30206;DHT22;17010;51.306;3.150;2023-11-19T02:26:47;12.20;99.90
30206;DHT22;17010;51.306;3.150;2023-11-19T02:29:15;12.20;99.90
30206;DHT22;17010;51.306;3.150;2023-11-19T02:31:42;12.20;99.90
30206;DHT22;17010;51.306;3.150;2023-11-19T02:34:10;12.10;99.90
30206;DHT22;17010;51.306;3.150;2023-11-19T02:36:36;12.10;99.90
30206;DHT22;17010;51.306;3.150;2023-11-19T02:39:03;12.00;99.90
30206;DHT22;17010;51.306;3.150;2023-11-19T02:41:30;12.10;99.90
30206;DHT22;17010;51.306;3.150;2023-11-19T02:43:56;12.00;99.90
30206;DHT22;17010;51.306;3.150;2023-11-19T02:46:22;12.00;99.90
30206;DHT22;17010;51.306;3.150;2023-11-19T02:48:49;12.00;99.90
30206;DHT22;17010;51.306;3.150;2023-11-19T02:51:15;12.00;99.90
30206;DHT22;17010;51.306;3.150;2023-11-19T02:53:42;11.90;99.90
30206;DHT22;17010;51.306;3.150;2023-11-19T02:56:10;11.90;99.90
30206;DHT22;17010;51.306;3.150;2023-11-19T02:58:51;11.90;99.90
30206;DHT22;17010;51.306;3.150;2023-11-19T03:01:26;11.90;99.90
30206;DHT22;17010;51.306;3.150;2023-11-19T03:03:57;11.90;99.90
30206;DHT22;17010;51.306;3.150;2023-11-19T03:06:24;11.90;99.90
30206;DHT22;17010;51.306;3.150;2023-11-19T03:08:50;11.90;99.90
30206;DHT22;17010;51.306;3.150;2023-11-19T03:11:17;11.90;99.90
30206;DHT22;17010;51.306;3.150;2023-11-19T03:13:43;11.90;99.90
30206;DHT22;17010;51.306;3.150;2023-11-19T03:16:09;11.90;99.90
30206;DHT22;17010;51.306;3.150;2023-11-19T03:18:38;11.80;99.90
30206;DHT22;17010;51.306;3.150;2023-11-19T03:21:08;11.80;99.90
30206;DHT22;17010;51.306;3.150;2023-11-19T03:23:34;11.80;99.90
30206;DHT22;17010;51.306;3.150;2023-11-19T03:26:01;11.80;99.90
30206;DHT22;17010;51.306;3.150;2023-11-19T03:28:31;11.80;99.90
30206;DHT22;17010;51.306;3.150;2023-11-19T03:30:58;11.80;99.90
30206;DHT22;17010;51.306;3.150;2023-11-19T03:33:25;11.80;99.90
30206;DHT22;17010;51.306;3.150;2023-11-19T03:35:54;11.80;99.90
30206;DHT22;17010;51.306;3.150;2023-11-19T03:38:23;11.80;99.90
30206;DHT22;17010;51.306;3.150;2023-11-19T03:40:49;11.80;99.90
30206;DHT22;17010;51.306;3.150;2023-11-19T03:43:15;11.80;99.90
30206;DHT22;17010;51.306;3.150;2023-11-19T03:45:42;11.80;99.90
30206;DHT22;17010;51.306;3.150;2023-11-19T03:48:08;11.80;99.90
30206;DHT22;17010;51.306;3.150;2023-11-19T03:50:34;11.80;99.90
30206;DHT22;17010;51.306;3.150;2023-11-19T03:53:01;11.80;99.90
30206;DHT22;17010;51.306;3.150;2023-11-19T03:55:29;11.80;99.90
30206;DHT22;17010;51.306;3.150;2023-11-19T03:57:55;11.70;99.90
30206;DHT22;17010;51.306;3.150;2023-11-19T04:00:25;11.70;99.90
30206;DHT22;17010;51.306;3.150;2023-11-19T04:02:51;11.70;99.90
30206;DHT22;17010;51.306;3.150;2023-11-19T04:05:17;11.70;99.90
30206;DHT22;17010;51.306;3.150;2023-11-19T04:07:44;11.70;99.90
30206;DHT22;17010;51.306;3.150;2023-11-19T04:10:10;11.70;99.90
30206;DHT22;17010;51.306;3.150;2023-11-19T04:12:37;11.70;99.90
30206;DHT22;17010;51.306;3.150;2023-11-19T04:15:03;11.70;99.90
30206;DHT22;17010;51.306;3.150;2023-11-19T04:17:30;11.70;99.90
30206;DHT22;17010;51.306;3.150;2023-11-19T04:19:56;11.70;99.90
30206;DHT22;17010;51.306;3.150;2023-11-19T04:22:22;11.60;99.90
30206;DHT22;17010;51.306;3.150;2023-11-19T04:24:48;11.60;99.90
30206;DHT22;17010;51.306;3.150;2023-11-19T04:27:15;11.60;99.90
30206;DHT22;17010;51.306;3.150;2023-11-19T04:29:41;11.60;99.90
30206;DHT22;17010;51.306;3.150;2023-11-19T04:32:08;11.60;99.90
30206;DHT22;17010;51.306;3.150;2023-11-19T04:34:34;11.60;99.90
30206;DHT22;17010;51.306;3.150;2023-11-19T04:37:02;11.60;99.90
30206;DHT22;17010;51.306;3.150;2023-11-19T04:39:29;11.60;99.90
30206;DHT22;17010;51.306;3.150;2023-11-19T04:41:55;11.60;99.90
30206;DHT22;17010;51.306;3.150;2023-11-19T04:44:21;11.60;99.90
30206;DHT22;17010;51.306;3.150;2023-11-19T04:46:48;11.60;99.90
30206;DHT22;17010;51.306;3.150;2023-11-19T04:49:14;11.50;99.90
30206;DHT22;17010;51.306;3.150;2023-11-19T04:51:44;11.50;99.90
30206;DHT22;17010;51.306;3.150;2023-11-19T04:54:13;11.50;99.90
30206;DHT22;17010;51.306;3.150;2023-11-19T04:56:40;11.40;99.90
30206;DHT22;17010;51.306;3.150;2023-11-19T04:59:06;11.40;99.90
30206;DHT22;17010;51.306;3.150;2023-11-19T05:01:33;11.40;99.90
30206;DHT22;17010;51.306;3.150;2023-11-19T05:04:00;11.40;99.90
30206;DHT22;17010;51.306;3.150;2023-11-19T05:06:27;11.40;99.90
30206;DHT22;17010;51.306;3.150;2023-11-19T05:08:55;11.40;99.90
30206;DHT22;17010;51.306;3.150;2023-11-19T05:11:21;11.50;99.90
30206;DHT22;17010;51.306;3.150;2023-11-19T05:13:47;11.50;99.90
30206;DHT22;17010;51.306;3.150;2023-11-19T05:16:13;11.50;99.90
30206;DHT22;17010;51.306;3.150;2023-11-19T05:18:41;11.50;99.90
30206;DHT22;17010;51.306;3.150;2023-11-19T05:21:07;11.50;99.90
30206;DHT22;17010;51.306;3.150;2023-11-19T05:23:33;11.40;99.90
30206;DHT22;17010;51.306;3.150;2023-11-19T05:26:03;11.40;99.90
30206;DHT22;17010;51.306;3.150;2023-11-19T05:28:29;11.40;99.90
30206;DHT22;17010;51.306;3.150;2023-11-19T05:30:55;11.40;99.90
30206;DHT22;17010;51.306;3.150;2023-11-19T05:33:22;11.50;99.90
30206;DHT22;17010;51.306;3.150;2023-11-19T05:35:48;11.40;99.90
30206;DHT22;17010;51.306;3.150;2023-11-19T05:38:14;11.40;99.90
30206;DHT22;17010;51.306;3.150;2023-11-19T05:40:41;11.40;99.90
30206;DHT22;17010;51.306;3.150;2023-11-19T05:43:07;11.30;99.90
30206;DHT22;17010;51.306;3.150;2023-11-19T05:45:33;11.30;99.90
30206;DHT22;17010;51.306;3.150;2023-11-19T05:47:59;11.30;99.90
30206;DHT22;17010;51.306;3.150;2023-11-19T05:50:26;11.30;99.90
30206;DHT22;17010;51.306;3.150;2023-11-19T05:52:52;11.20;99.90
30206;DHT22;17010;51.306;3.150;2023-11-19T05:55:19;11.20;99.90
30206;DHT22;17010;51.306;3.150;2023-11-19T05:57:45;11.20;99.90
30206;DHT22;17010;51.306;3.150;2023-11-19T06:00:12;11.20;99.90
30206;DHT22;17010;51.306;3.150;2023-11-19T06:02:39;11.10;99.90
30206;DHT22;17010;51.306;3.150;2023-11-19T06:05:05;11.10;99.90
30206;DHT22;17010;51.306;3.150;2023-11-19T06:07:33;11.00;99.90
30206;DHT22;17010;51.306;3.150;2023-11-19T06:09:59;11.00;99.90
30206;DHT22;17010;51.306;3.150;2023-11-19T06:12:25;11.00;99.90
30206;DHT22;17010;51.306;3.150;2023-11-19T06:14:53;10.90;99.90
30206;DHT22;17010;51.306;3.150;2023-11-19T06:17:19;11.00;99.90
30206;DHT22;17010;51.306;3.150;2023-11-19T06:19:46;10.90;99.90
30206;DHT22;17010;51.306;3.150;2023-11-19T06:22:12;10.90;99.90
30206;DHT22;17010;51.306;3.150;2023-11-19T06:24:39;10.90;99.90
30206;DHT22;17010;51.306;3.150;2023-11-19T06:27:05;10.90;99.90
30206;DHT22;17010;51.306;3.150;2023-11-19T06:29:32;10.80;99.90
30206;DHT22;17010;51.306;3.150;2023-11-19T06:31:58;10.80;99.90
30206;DHT22;17010;51.306;3.150;2023-11-19T06:34:24;10.80;99.90
30206;DHT22;17010;51.306;3.150;2023-11-19T06:36:50;10.80;99.90
30206;DHT22;17010;51.306;3.150;2023-11-19T06:39:16;10.80;99.90
30206;DHT22;17010;51.306;3.150;2023-11-19T06:41:46;10.80;99.90
30206;DHT22;17010;51.306;3.150;2023-11-19T06:44:13;10.70;99.90
30206;DHT22;17010;51.306;3.150;2023-11-19T06:46:39;10.70;99.90
30206;DHT22;17010;51.306;3.150;2023-11-19T06:49:06;10.70;99.90
30206;DHT22;17010;51.306;3.150;2023-11-19T06:51:34;10.60;99.90
30206;DHT22;17010;51.306;3.150;2023-11-19T06:54:00;10.60;99.90
30206;DHT22;17010;51.306;3.150;2023-11-19T06:56:26;10.60;99.90
30206;DHT22;17010;51.306;3.150;2023-11-19T06:58:53;10.70;99.90
30206;DHT22;17010;51.306;3.150;2023-11-19T07:01:19;10.70;99.90
30206;DHT22;17010;51.306;3.150;2023-11-19T07:03:46;10.70;99.90
30206;DHT22;17010;51.306;3.150;2023-11-19T07:06:12;10.70;99.90
30206;DHT22;17010;51.306;3.150;2023-11-19T07:08:41;10.70;99.90
30206;DHT22;17010;51.306;3.150;2023-11-19T07:11:07;10.70;99.90
30206;DHT22;17010;51.306;3.150;2023-11-19T07:13:36;10.70;99.90
30206;DHT22;17010;51.306;3.150;2023-11-19T07:16:02;10.70;99.90
30206;DHT22;17010;51.306;3.150;2023-11-19T07:18:28;10.70;99.90
30206;DHT22;17010;51.306;3.150;2023-11-19T07:20:54;10.80;99.90
30206;DHT22;17010;51.306;3.150;2023-11-19T07:23:21;10.80;99.90
30206;DHT22;17010;51.306;3.150;2023-11-19T07:25:47;10.80;99.90
30206;DHT22;17010;51.306;3.150;2023-11-19T07:28:14;10.80;99.90
30206;DHT22;17010;51.306;3.150;2023-11-19T07:30:40;10.70;99.90
30206;DHT22;17010;51.306;3.150;2023-11-19T07:33:06;10.80;99.90
30206;DHT22;17010;51.306;3.150;2023-11-19T07:35:33;10.80;99.90
30206;DHT22;17010;51.306;3.150;2023-11-19T07:37:59;10.80;99.90
30206;DHT22;17010;51.306;3.150;2023-11-19T07:40:26;10.80;99.90
30206;DHT22;17010;51.306;3.150;2023-11-19T07:42:52;10.80;99.90
30206;DHT22;17010;51.306;3.150;2023-11-19T07:45:18;10.80;99.90
30206;DHT22;17010;51.306;3.150;2023-11-19T07:47:44;10.80;99.90
30206;DHT22;17010;51.306;3.150;2023-11-19T07:50:10;10.90;99.90
30206;DHT22;17010;51.306;3.150;2023-11-19T07:52:40;10.90;99.90
30206;DHT22;17010;51.306;3.150;2023-11-19T07:55:07;10.90;99.90
30206;DHT22;17010;51.306;3.150;2023-11-19T07:57:33;11.00;99.90
30206;DHT22;17010;51.306;3.150;2023-11-19T07:59:59;11.00;99.90
30206;DHT22;17010;51.306;3.150;2023-11-19T08:02:27;11.00;99.90
30206;DHT22;17010;51.306;3.150;2023-11-19T08:04:54;11.00;99.90
30206;DHT22;17010;51.306;3.150;2023-11-19T08:07:21;11.10;99.90
30206;DHT22;17010;51.306;3.150;2023-11-19T08:09:48;11.20;99.90
30206;DHT22;17010;51.306;3.150;2023-11-19T08:12:14;11.30;99.90
30206;DHT22;17010;51.306;3.150;2023-11-19T08:14:42;11.40;99.90
30206;DHT22;17010;51.306;3.150;2023-11-19T08:17:08;11.60;99.90
30206;DHT22;17010;51.306;3.150;2023-11-19T08:19:34;11.80;99.90
30206;DHT22;17010;51.306;3.150;2023-11-19T08:22:01;12.00;99.90
30206;DHT22;17010;51.306;3.150;2023-11-19T08:24:27;12.20;99.90
30206;DHT22;17010;51.306;3.150;2023-11-19T08:26:54;12.30;99.90
30206;DHT22;17010;51.306;3.150;2023-11-19T08:29:20;12.30;99.90
30206;DHT22;17010;51.306;3.150;2023-11-19T08:31:47;12.40;99.90
30206;DHT22;17010;51.306;3.150;2023-11-19T08:34:13;12.30;99.90
30206;DHT22;17010;51.306;3.150;2023-11-19T08:36:39;12.30;99.90
30206;DHT22;17010;51.306;3.150;2023-11-19T08:39:05;12.20;99.90
30206;DHT22;17010;51.306;3.150;2023-11-19T08:41:31;12.20;99.90
30206;DHT22;17010;51.306;3.150;2023-11-19T08:43:58;12.20;99.90
30206;DHT22;17010;51.306;3.150;2023-11-19T08:46:24;12.20;99.90
30206;DHT22;17010;51.306;3.150;2023-11-19T08:48:51;12.30;99.90
30206;DHT22;17010;51.306;3.150;2023-11-19T08:51:17;12.30;99.90
30206;DHT22;17010;51.306;3.150;2023-11-19T08:53:43;12.40;99.90
30206;DHT22;17010;51.306;3.150;2023-11-19T08:56:10;12.40;99.90
30206;DHT22;17010;51.306;3.150;2023-11-19T08:58:36;12.40;99.90
30206;DHT22;17010;51.306;3.150;2023-11-19T09:01:02;12.50;99.90
30206;DHT22;17010;51.306;3.150;2023-11-19T09:03:31;12.60;99.90
30206;DHT22;17010;51.306;3.150;2023-11-19T09:05:57;12.50;99.90
30206;DHT22;17010;51.306;3.150;2023-11-19T09:08:23;12.50;99.90
30206;DHT22;17010;51.306;3.150;2023-11-19T09:10:50;12.50;99.90
30206;DHT22;17010;51.306;3.150;2023-11-19T09:13:16;12.50;99.90
30206;DHT22;17010;51.306;3.150;2023-11-19T09:15:42;12.60;99.90
30206;DHT22;17010;51.306;3.150;2023-11-19T09:18:08;12.70;99.90
30206;DHT22;17010;51.306;3.150;2023-11-19T09:20:34;12.80;99.90
30206;DHT22;17010;51.306;3.150;2023-11-19T09:23:05;12.70;99.90
30206;DHT22;17010;51.306;3.150;2023-11-19T09:25:32;12.70;99.90
30206;DHT22;17010;51.306;3.150;2023-11-19T09:27:58;12.70;99.90
30206;DHT22;17010;51.306;3.150;2023-11-19T09:30:24;12.60;99.90
30206;DHT22;17010;51.306;3.150;2023-11-19T09:32:50;12.50;99.90
30206;DHT22;17010;51.306;3.150;2023-11-19T09:35:17;12.40;99.90
30206;DHT22;17010;51.306;3.150;2023-11-19T09:37:43;12.20;99.90
30206;DHT22;17010;51.306;3.150;2023-11-19T09:40:09;12.10;99.90
30206;DHT22;17010;51.306;3.150;2023-11-19T09:42:43;12.00;99.90
30206;DHT22;17010;51.306;3.150;2023-11-19T09:45:45;12.00;99.90
30206;DHT22;17010;51.306;3.150;2023-11-19T09:48:13;12.00;99.90
30206;DHT22;17010;51.306;3.150;2023-11-19T09:50:40;12.00;99.90
30206;DHT22;17010;51.306;3.150;2023-11-19T09:53:07;12.10;99.90
30206;DHT22;17010;51.306;3.150;2023-11-19T09:55:33;12.20;99.90
30206;DHT22;17010;51.306;3.150;2023-11-19T09:57:59;12.30;99.90
30206;DHT22;17010;51.306;3.150;2023-11-19T10:00:27;12.40;99.90
30206;DHT22;17010;51.306;3.150;2023-11-19T10:02:53;12.60;99.90
30206;DHT22;17010;51.306;3.150;2023-11-19T10:05:20;12.70;99.90
30206;DHT22;17010;51.306;3.150;2023-11-19T10:07:47;12.80;99.90
30206;DHT22;17010;51.306;3.150;2023-11-19T10:10:13;13.00;99.90
30206;DHT22;17010;51.306;3.150;2023-11-19T10:12:45;13.10;99.90
30206;DHT22;17010;51.306;3.150;2023-11-19T10:15:23;13.20;99.90
30206;DHT22;17010;51.306;3.150;2023-11-19T10:17:51;13.40;99.90
30206;DHT22;17010;51.306;3.150;2023-11-19T10:20:17;13.60;99.90
30206;DHT22;17010;51.306;3.150;2023-11-19T10:22:43;13.60;99.90
30206;DHT22;17010;51.306;3.150;2023-11-19T10:27:50;13.60;99.90
30206;DHT22;17010;51.306;3.150;2023-11-19T10:30:30;13.60;99.90
30206;DHT22;17010;51.306;3.150;2023-11-19T10:33:09;13.50;99.90
30206;DHT22;17010;51.306;3.150;2023-11-19T10:35:51;13.40;99.90
30206;DHT22;17010;51.306;3.150;2023-11-19T10:38:23;13.30;99.90
30206;DHT22;17010;51.306;3.150;2023-11-19T10:40:50;13.30;99.90
30206;DHT22;17010;51.306;3.150;2023-11-19T10:43:20;13.20;99.90
30206;DHT22;17010;51.306;3.150;2023-11-19T10:45:49;13.30;99.90
30206;DHT22;17010;51.306;3.150;2023-11-19T10:48:15;13.30;99.90
30206;DHT22;17010;51.306;3.150;2023-11-19T10:50:43;13.40;99.90
30206;DHT22;17010;51.306;3.150;2023-11-19T10:53:11;13.40;99.90
30206;DHT22;17010;51.306;3.150;2023-11-19T10:55:41;13.30;99.90
30206;DHT22;17010;51.306;3.150;2023-11-19T10:58:10;13.30;99.90
30206;DHT22;17010;51.306;3.150;2023-11-19T11:03:16;13.30;99.90
30206;DHT22;17010;51.306;3.150;2023-11-19T11:05:43;13.30;99.90
30206;DHT22;17010;51.306;3.150;2023-11-19T11:08:13;13.30;99.90
30206;DHT22;17010;51.306;3.150;2023-11-19T11:10:42;13.20;99.90
30206;DHT22;17010;51.306;3.150;2023-11-19T11:13:09;13.00;99.90
30206;DHT22;17010;51.306;3.150;2023-11-19T11:15:36;12.80;99.90
30206;DHT22;17010;51.306;3.150;2023-11-19T11:18:03;12.70;99.90
30206;DHT22;17010;51.306;3.150;2023-11-19T11:20:33;12.70;99.90
30206;DHT22;17010;51.306;3.150;2023-11-19T11:28:32;12.80;99.90
30206;DHT22;17010;51.306;3.150;2023-11-19T11:31:15;12.80;99.90
30206;DHT22;17010;51.306;3.150;2023-11-19T11:39:20;12.80;99.90
30206;DHT22;17010;51.306;3.150;2023-11-19T11:41:47;12.70;99.90
30206;DHT22;17010;51.306;3.150;2023-11-19T11:45:01;12.70;99.90
30206;DHT22;17010;51.306;3.150;2023-11-19T11:50:10;12.80;99.90
30206;DHT22;17010;51.306;3.150;2023-11-19T11:57:50;12.90;99.90
30206;DHT22;17010;51.306;3.150;2023-11-19T12:00:27;12.90;99.90
30206;DHT22;17010;51.306;3.150;2023-11-19T12:02:56;12.90;99.90
30206;DHT22;17010;51.306;3.150;2023-11-19T12:05:23;13.10;99.90
30206;DHT22;17010;51.306;3.150;2023-11-19T12:10:29;13.20;99.90
30206;DHT22;17010;51.306;3.150;2023-11-19T12:12:59;13.20;99.90
30206;DHT22;17010;51.306;3.150;2023-11-19T12:15:26;13.30;99.90
30206;DHT22;17010;51.306;3.150;2023-11-19T12:17:54;13.20;99.90
30206;DHT22;17010;51.306;3.150;2023-11-19T12:20:22;13.20;99.90
30206;DHT22;17010;51.306;3.150;2023-11-19T12:22:49;13.20;99.90
30206;DHT22;17010;51.306;3.150;2023-11-19T12:25:16;13.30;99.90
30206;DHT22;17010;51.306;3.150;2023-11-19T12:27:47;13.20;99.90
30206;DHT22;17010;51.306;3.150;2023-11-19T12:30:24;13.30;99.90
30206;DHT22;17010;51.306;3.150;2023-11-19T12:32:51;13.30;99.90
30206;DHT22;17010;51.306;3.150;2023-11-19T12:35:19;13.30;99.90
30206;DHT22;17010;51.306;3.150;2023-11-19T12:37:47;13.30;99.90
30206;DHT22;17010;51.306;3.150;2023-11-19T12:42:50;13.30;99.90
30206;DHT22;17010;51.306;3.150;2023-11-19T12:45:16;13.20;99.90
30206;DHT22;17010;51.306;3.150;2023-11-19T12:47:43;13.30;99.90
30206;DHT22;17010;51.306;3.150;2023-11-19T12:50:10;13.30;99.90
30206;DHT22;17010;51.306;3.150;2023-11-19T12:52:37;13.30;99.90
30206;DHT22;17010;51.306;3.150;2023-11-19T12:57:49;13.30;99.90
30206;DHT22;17010;51.306;3.150;2023-11-19T13:00:19;13.30;99.90
30206;DHT22;17010;51.306;3.150;2023-11-19T13:02:55;13.40;99.90
30206;DHT22;17010;51.306;3.150;2023-11-19T13:08:02;13.40;99.90
30206;DHT22;17010;51.306;3.150;2023-11-19T13:10:29;13.40;99.90
30206;DHT22;17010;51.306;3.150;2023-11-19T13:13:02;13.50;99.90
30206;DHT22;17010;51.306;3.150;2023-11-19T13:15:28;13.50;99.90
30206;DHT22;17010;51.306;3.150;2023-11-19T13:17:54;13.50;99.90
30206;DHT22;17010;51.306;3.150;2023-11-19T13:20:21;13.60;99.90
30206;DHT22;17010;51.306;3.150;2023-11-19T13:23:01;13.50;99.90
30206;DHT22;17010;51.306;3.150;2023-11-19T13:25:28;13.50;99.90
30206;DHT22;17010;51.306;3.150;2023-11-19T13:27:54;13.60;99.90
30206;DHT22;17010;51.306;3.150;2023-11-19T13:30:21;13.80;99.90
30206;DHT22;17010;51.306;3.150;2023-11-19T13:32:48;13.90;99.90
30206;DHT22;17010;51.306;3.150;2023-11-19T13:35:15;14.00;99.90
30206;DHT22;17010;51.306;3.150;2023-11-19T13:37:43;14.20;99.90
30206;DHT22;17010;51.306;3.150;2023-11-19T13:40:11;14.30;99.90
30206;DHT22;17010;51.306;3.150;2023-11-19T13:42:40;14.30;99.90
30206;DHT22;17010;51.306;3.150;2023-11-19T13:45:14;14.30;99.90
30206;DHT22;17010;51.306;3.150;2023-11-19T13:47:45;14.10;99.90
30206;DHT22;17010;51.306;3.150;2023-11-19T13:50:13;14.10;99.90
30206;DHT22;17010;51.306;3.150;2023-11-19T13:52:41;14.10;99.90
30206;DHT22;17010;51.306;3.150;2023-11-19T13:55:09;13.90;99.90
30206;DHT22;17010;51.306;3.150;2023-11-19T13:57:36;13.80;99.90
30206;DHT22;17010;51.306;3.150;2023-11-19T14:00:03;13.70;99.90
30206;DHT22;17010;51.306;3.150;2023-11-19T14:02:34;13.60;99.90
30206;DHT22;17010;51.306;3.150;2023-11-19T14:05:00;13.50;99.90
30206;DHT22;17010;51.306;3.150;2023-11-19T14:07:26;13.50;99.90
30206;DHT22;17010;51.306;3.150;2023-11-19T14:09:53;13.50;99.90
30206;DHT22;17010;51.306;3.150;2023-11-19T14:12:20;13.40;99.90
30206;DHT22;17010;51.306;3.150;2023-11-19T14:14:46;13.30;99.90
30206;DHT22;17010;51.306;3.150;2023-11-19T14:17:12;13.20;99.90
30206;DHT22;17010;51.306;3.150;2023-11-19T14:19:38;13.20;99.90
30206;DHT22;17010;51.306;3.150;2023-11-19T14:22:05;13.00;99.90
30206;DHT22;17010;51.306;3.150;2023-11-19T14:24:31;12.80;99.90
30206;DHT22;17010;51.306;3.150;2023-11-19T14:26:58;12.70;99.90
30206;DHT22;17010;51.306;3.150;2023-11-19T14:29:24;12.70;99.90
30206;DHT22;17010;51.306;3.150;2023-11-19T14:31:57;12.60;99.90
30206;DHT22;17010;51.306;3.150;2023-11-19T14:34:24;12.50;99.90
30206;DHT22;17010;51.306;3.150;2023-11-19T14:36:52;12.50;99.90
30206;DHT22;17010;51.306;3.150;2023-11-19T14:39:19;12.40;99.90
30206;DHT22;17010;51.306;3.150;2023-11-19T14:41:46;12.40;99.90
30206;DHT22;17010;51.306;3.150;2023-11-19T14:44:12;12.30;99.90
30206;DHT22;17010;51.306;3.150;2023-11-19T14:46:38;12.30;99.90
30206;DHT22;17010;51.306;3.150;2023-11-19T14:49:06;12.30;99.90
30206;DHT22;17010;51.306;3.150;2023-11-19T14:51:41;12.20;99.90
30206;DHT22;17010;51.306;3.150;2023-11-19T14:54:08;12.20;99.90
30206;DHT22;17010;51.306;3.150;2023-11-19T14:56:34;12.20;99.90
30206;DHT22;17010;51.306;3.150;2023-11-19T14:59:00;12.20;99.90
30206;DHT22;17010;51.306;3.150;2023-11-19T15:01:26;12.20;99.90
30206;DHT22;17010;51.306;3.150;2023-11-19T15:03:54;12.20;99.90
30206;DHT22;17010;51.306;3.150;2023-11-19T15:06:27;12.20;99.90
30206;DHT22;17010;51.306;3.150;2023-11-19T15:08:54;12.20;99.90
30206;DHT22;17010;51.306;3.150;2023-11-19T15:11:23;12.20;99.90
30206;DHT22;17010;51.306;3.150;2023-11-19T15:13:49;12.20;99.90
30206;DHT22;17010;51.306;3.150;2023-11-19T15:16:16;12.20;99.90
30206;DHT22;17010;51.306;3.150;2023-11-19T15:18:48;12.20;99.90
30206;DHT22;17010;51.306;3.150;2023-11-19T15:21:14;12.20;99.90
30206;DHT22;17010;51.306;3.150;2023-11-19T15:23:40;12.10;99.90
30206;DHT22;17010;51.306;3.150;2023-11-19T15:26:06;12.10;99.90
30206;DHT22;17010;51.306;3.150;2023-11-19T15:28:39;12.10;99.90
30206;DHT22;17010;51.306;3.150;2023-11-19T15:31:05;12.10;99.90
30206;DHT22;17010;51.306;3.150;2023-11-19T15:33:31;12.10;99.90
30206;DHT22;17010;51.306;3.150;2023-11-19T15:35:57;12.10;99.90
30206;DHT22;17010;51.306;3.150;2023-11-19T15:38:26;12.10;99.90
30206;DHT22;17010;51.306;3.150;2023-11-19T15:40:53;12.10;99.90
30206;DHT22;17010;51.306;3.150;2023-11-19T15:43:19;12.10;99.90
30206;DHT22;17010;51.306;3.150;2023-11-19T15:45:46;12.10;99.90
30206;DHT22;17010;51.306;3.150;2023-11-19T15:48:12;12.00;99.90
30206;DHT22;17010;51.306;3.150;2023-11-19T15:50:39;12.10;99.90
30206;DHT22;17010;51.306;3.150;2023-11-19T15:53:05;12.00;99.90
30206;DHT22;17010;51.306;3.150;2023-11-19T15:55:32;12.10;99.90
30206;DHT22;17010;51.306;3.150;2023-11-19T15:57:59;12.10;99.90
30206;DHT22;17010;51.306;3.150;2023-11-19T16:00:25;12.10;99.90
30206;DHT22;17010;51.306;3.150;2023-11-19T16:02:51;12.10;99.90
30206;DHT22;17010;51.306;3.150;2023-11-19T16:05:19;12.10;99.90
30206;DHT22;17010;51.306;3.150;2023-11-19T16:07:45;12.10;99.90